Time;durP1;ratioP1;P1;durP2;ratioP2;P2;SDS_P1;SDS_P2;PMS_P1;PMS_P2;Temp;Humidity;BMP_temperature;BMP_pressure;BME280_temperature;BME280_humidity;BME280_pressure;Samples;Min_cycle;Max_cycle;Signal;HPM_P1;HPM_P2
2023/12/01 00:02:24;;;;;;;2.88;2.58;;;;;;;;;;5010876;28;20023;-78
2023/12/01 00:04:51;;;;;;;3.08;2.65;;;;;;;;;;5032686;28;20052;-79
2023/12/01 00:07:17;;;;;;;3.70;3.20;;;;;;;;;;5015296;28;20032;-79
2023/12/01 00:09:43;;;;;;;2.88;2.58;;;;;;;;;;5006865;28;20030;-79
2023/12/01 00:12:09;;;;;;;2.33;1.90;;;;;;;;;;5011533;28;20404;-78
2023/12/01 00:14:35;;;;;;;2.88;2.58;;;;;;;;;;5017904;28;20034;-77
2023/12/01 00:17:02;;;;;;;3.40;2.60;;;;;;;;;;5007402;28;20120;-78
2023/12/01 00:19:28;;;;;;;3.25;2.70;;;;;;;;;;5016570;28;20018;-79
2023/12/01 00:21:54;;;;;;;3.10;2.80;;;;;;;;;;5008601;28;20026;-79
2023/12/01 00:24:20;;;;;;;3.08;2.78;;;;;;;;;;5012074;28;20026;-77
2023/12/01 00:26:46;;;;;;;3.40;2.50;;;;;;;;;;5004137;28;20038;-79
2023/12/01 00:29:12;;;;;;;2.40;2.20;;;;;;;;;;5006646;28;20473;-79
2023/12/01 00:31:38;;;;;;;2.83;2.30;;;;;;;;;;5002484;28;20026;-79
2023/12/01 00:34:05;;;;;;;3.30;2.75;;;;;;;;;;5020694;28;20030;-78
2023/12/01 00:36:34;;;;;;;4.60;2.78;;;;;;;;;;5011256;28;20029;-79
2023/12/01 00:39:00;;;;;;;3.35;2.55;;;;;;;;;;5016600;28;20022;-79
2023/12/01 00:41:26;;;;;;;3.65;3.22;;;;;;;;;;5004356;28;20030;-79
2023/12/01 00:43:52;;;;;;;3.75;2.78;;;;;;;;;;5001865;28;20029;-79
2023/12/01 00:46:19;;;;;;;4.25;3.15;;;;;;;;;;5005650;28;20049;-80
2023/12/01 00:48:45;;;;;;;3.85;2.72;;;;;;;;;;4999602;28;20061;-78
2023/12/01 00:51:17;;;;;;;3.78;3.05;;;;;;;;;;5006021;28;20563;-79
2023/12/01 00:53:44;;;;;;;2.97;2.65;;;;;;;;;;5011875;28;20022;-79
2023/12/01 00:56:11;;;;;;;3.22;2.92;;;;;;;;;;5001570;28;20023;-79
2023/12/01 00:58:38;;;;;;;3.33;2.78;;;;;;;;;;5010052;28;20080;-80
2023/12/01 01:01:05;;;;;;;3.38;2.80;;;;;;;;;;5010680;28;20021;-79
2023/12/01 01:03:32;;;;;;;4.75;2.85;;;;;;;;;;5003997;28;20014;-78
2023/12/01 01:05:58;;;;;;;3.15;2.47;;;;;;;;;;5025576;28;20037;-77
2023/12/01 01:08:24;;;;;;;5.25;3.28;;;;;;;;;;5033092;28;20089;-79
2023/12/01 01:10:51;;;;;;;4.43;3.28;;;;;;;;;;5038703;28;20029;-79
2023/12/01 01:13:17;;;;;;;3.90;2.88;;;;;;;;;;5018588;28;20021;-79
2023/12/01 01:15:43;;;;;;;3.15;2.72;;;;;;;;;;5020724;28;20077;-79
2023/12/01 01:18:09;;;;;;;2.70;2.47;;;;;;;;;;5018165;28;20030;-80
2023/12/01 01:20:35;;;;;;;4.28;2.80;;;;;;;;;;5015543;28;20038;-79
2023/12/01 01:23:01;;;;;;;4.47;3.10;;;;;;;;;;5006213;28;20010;-79
2023/12/01 01:25:27;;;;;;;4.35;3.22;;;;;;;;;;5000689;28;20023;-79
2023/12/01 01:27:53;;;;;;;3.50;2.70;;;;;;;;;;5005279;28;20022;-77
2023/12/01 01:30:19;;;;;;;3.33;2.88;;;;;;;;;;5020222;28;20029;-77
2023/12/01 01:32:46;;;;;;;3.83;2.58;;;;;;;;;;5020141;28;20022;-78
2023/12/01 01:35:12;;;;;;;3.35;2.50;;;;;;;;;;5018981;28;20030;-78
2023/12/01 01:37:39;;;;;;;2.65;2.22;;;;;;;;;;5000303;28;20378;-79
2023/12/01 01:40:06;;;;;;;3.05;2.70;;;;;;;;;;4996687;28;20018;-79
2023/12/01 01:42:33;;;;;;;3.20;2.45;;;;;;;;;;4998473;28;20022;-78
2023/12/01 01:45:00;;;;;;;4.43;2.88;;;;;;;;;;4996431;28;20113;-79
2023/12/01 01:47:26;;;;;;;3.53;2.90;;;;;;;;;;5007539;28;20061;-79
2023/12/01 01:49:52;;;;;;;2.63;2.40;;;;;;;;;;4995596;28;20065;-78
2023/12/01 01:52:19;;;;;;;3.33;2.60;;;;;;;;;;5026668;28;20049;-77
2023/12/01 01:54:45;;;;;;;3.28;2.35;;;;;;;;;;5035413;28;20029;-78
2023/12/01 01:57:11;;;;;;;2.72;2.30;;;;;;;;;;5015912;28;20018;-78
2023/12/01 01:59:37;;;;;;;2.30;2.10;;;;;;;;;;5030058;28;20092;-77
2023/12/01 02:02:04;;;;;;;3.03;2.63;;;;;;;;;;5029496;28;20021;-77
2023/12/01 02:04:30;;;;;;;2.58;2.17;;;;;;;;;;5016971;28;20029;-77
2023/12/01 02:06:56;;;;;;;2.65;2.30;;;;;;;;;;5014417;28;20023;-77
2023/12/01 02:09:22;;;;;;;2.08;1.88;;;;;;;;;;5046593;28;20023;-78
2023/12/01 02:11:49;;;;;;;2.42;2.22;;;;;;;;;;5049712;28;20021;-78
2023/12/01 02:14:15;;;;;;;2.28;1.75;;;;;;;;;;5045785;28;20017;-78
2023/12/01 02:16:45;;;;;;;2.70;2.10;;;;;;;;;;5038474;28;20044;-78
2023/12/01 02:19:12;;;;;;;2.08;1.88;;;;;;;;;;5032847;28;20388;-79
2023/12/01 02:21:43;;;;;;;2.05;1.85;;;;;;;;;;5014882;28;20049;-77
2023/12/01 02:24:09;;;;;;;2.88;2.22;;;;;;;;;;5003573;28;20027;-78
2023/12/01 02:26:35;;;;;;;2.05;1.83;;;;;;;;;;5032178;28;20052;-78
2023/12/01 02:29:05;;;;;;;2.15;1.95;;;;;;;;;;5012353;28;20027;-76
2023/12/01 02:31:31;;;;;;;2.38;2.13;;;;;;;;;;5003167;28;20409;-77
2023/12/01 02:33:57;;;;;;;1.88;1.65;;;;;;;;;;5004446;28;20030;-77
2023/12/01 02:36:24;;;;;;;2.05;1.65;;;;;;;;;;5009461;28;20431;-78
2023/12/01 02:38:50;;;;;;;1.98;1.50;;;;;;;;;;5000385;28;20455;-79
2023/12/01 02:41:19;;;;;;;2.15;1.80;;;;;;;;;;5022717;28;20018;-78
2023/12/01 02:43:45;;;;;;;1.52;1.42;;;;;;;;;;5029223;28;20021;-79
2023/12/01 02:46:12;;;;;;;1.70;1.60;;;;;;;;;;5017350;28;20030;-79
2023/12/01 02:48:39;;;;;;;1.75;1.63;;;;;;;;;;5003022;28;20026;-78
2023/12/01 02:51:05;;;;;;;2.08;1.80;;;;;;;;;;4999434;28;20038;-79
2023/12/01 02:53:32;;;;;;;2.00;1.60;;;;;;;;;;5003996;28;20034;-79
2023/12/01 02:55:58;;;;;;;1.58;1.48;;;;;;;;;;5025512;28;20017;-79
2023/12/01 02:58:24;;;;;;;1.35;1.25;;;;;;;;;;5034693;28;20048;-80
2023/12/01 03:00:51;;;;;;;1.10;1.00;;;;;;;;;;5014295;28;20018;-79
2023/12/01 03:03:17;;;;;;;1.67;1.40;;;;;;;;;;5007980;28;20070;-78
2023/12/01 03:05:43;;;;;;;1.45;1.35;;;;;;;;;;5001625;28;20035;-78
2023/12/01 03:08:09;;;;;;;2.03;1.45;;;;;;;;;;5001527;28;20086;-78
2023/12/01 03:10:35;;;;;;;1.77;1.45;;;;;;;;;;5005506;28;20029;-78
2023/12/01 03:13:01;;;;;;;1.48;1.38;;;;;;;;;;5019908;28;20084;-79
2023/12/01 03:15:29;;;;;;;2.40;2.20;;;;;;;;;;5004832;28;20033;-78
2023/12/01 03:17:55;;;;;;;2.75;2.20;;;;;;;;;;5003830;28;20025;-78
2023/12/01 03:20:21;;;;;;;2.55;2.35;;;;;;;;;;5011379;28;20081;-79
2023/12/01 03:22:50;;;;;;;2.40;2.10;;;;;;;;;;5000826;28;20019;-79
2023/12/01 03:25:17;;;;;;;3.13;2.53;;;;;;;;;;5002263;28;20027;-81
2023/12/01 03:27:43;;;;;;;3.85;2.85;;;;;;;;;;4995624;28;20056;-78
2023/12/01 03:30:13;;;;;;;5.25;4.13;;;;;;;;;;5005116;28;20031;-79
2023/12/01 03:32:49;;;;;;;5.28;3.90;;;;;;;;;;5013125;28;20026;-78
2023/12/01 03:35:20;;;;;;;5.53;4.47;;;;;;;;;;5004926;28;20069;-79
2023/12/01 03:37:46;;;;;;;6.07;4.15;;;;;;;;;;5017876;28;20013;-80
2023/12/01 03:40:13;;;;;;;4.75;3.60;;;;;;;;;;5003395;28;20050;-79
2023/12/01 03:42:40;;;;;;;4.53;3.95;;;;;;;;;;5007363;28;20061;-79
2023/12/01 03:45:07;;;;;;;5.55;4.03;;;;;;;;;;5023612;28;20030;-79
2023/12/01 03:47:33;;;;;;;6.90;4.88;;;;;;;;;;5021640;28;20034;-80
2023/12/01 03:49:59;;;;;;;6.65;4.93;;;;;;;;;;5013080;28;20026;-80
2023/12/01 03:52:25;;;;;;;9.07;5.55;;;;;;;;;;5006448;28;20033;-80
2023/12/01 03:54:51;;;;;;;9.23;6.10;;;;;;;;;;5011055;28;20026;-79
2023/12/01 03:57:17;;;;;;;7.93;5.60;;;;;;;;;;5003328;28;20495;-79
2023/12/01 03:59:43;;;;;;;9.00;6.53;;;;;;;;;;5003168;28;20388;-79
2023/12/01 04:02:10;;;;;;;7.88;5.75;;;;;;;;;;5018252;28;20042;-78
2023/12/01 04:04:36;;;;;;;9.70;5.80;;;;;;;;;;5040591;28;20018;-79
2023/12/01 04:07:06;;;;;;;9.23;6.22;;;;;;;;;;5035671;28;20032;-79
2023/12/01 04:09:32;;;;;;;9.75;6.28;;;;;;;;;;5020099;28;20018;-79
2023/12/01 04:11:58;;;;;;;10.82;6.60;;;;;;;;;;5043827;28;20042;-79
2023/12/01 04:14:24;;;;;;;11.15;7.22;;;;;;;;;;5019311;28;20018;-78
2023/12/01 04:16:51;;;;;;;9.32;6.60;;;;;;;;;;5019372;28;20030;-79
2023/12/01 04:19:17;;;;;;;9.77;6.10;;;;;;;;;;5020232;28;20034;-79
2023/12/01 04:21:43;;;;;;;7.75;5.78;;;;;;;;;;5019755;28;20034;-77
2023/12/01 04:24:09;;;;;;;9.85;7.03;;;;;;;;;;5008731;28;20065;-77
2023/12/01 04:26:35;;;;;;;9.90;7.82;;;;;;;;;;5037039;28;20041;-77
2023/12/01 04:29:01;;;;;;;11.02;7.47;;;;;;;;;;5031079;28;20420;-77
2023/12/01 04:31:27;;;;;;;10.02;7.50;;;;;;;;;;5030390;28;20036;-77
2023/12/01 04:33:53;;;;;;;9.02;6.80;;;;;;;;;;5023111;28;20038;-77
2023/12/01 04:36:19;;;;;;;9.60;6.85;;;;;;;;;;5024508;28;20476;-78
2023/12/01 04:38:45;;;;;;;7.53;6.35;;;;;;;;;;5013753;28;20030;-77
2023/12/01 04:41:11;;;;;;;8.45;6.57;;;;;;;;;;5006065;28;20053;-78
2023/12/01 04:43:39;;;;;;;8.52;5.80;;;;;;;;;;5004642;28;20366;-79
2023/12/01 04:46:05;;;;;;;10.70;7.07;;;;;;;;;;5019393;28;20022;-79
2023/12/01 04:48:32;;;;;;;10.68;7.30;;;;;;;;;;5019340;28;20029;-79
2023/12/01 04:50:58;;;;;;;10.52;7.45;;;;;;;;;;5019587;28;20096;-79
2023/12/01 04:53:24;;;;;;;10.07;6.53;;;;;;;;;;5019919;28;20026;-79
2023/12/01 04:55:50;;;;;;;9.10;6.28;;;;;;;;;;5037283;28;20042;-79
2023/12/01 04:58:17;;;;;;;8.77;6.22;;;;;;;;;;5027043;28;20037;-80
2023/12/01 05:00:43;;;;;;;10.63;6.90;;;;;;;;;;5017565;28;20030;-80
2023/12/01 05:03:10;;;;;;;10.95;7.45;;;;;;;;;;5017655;28;20616;-79
2023/12/01 05:05:41;;;;;;;9.93;6.78;;;;;;;;;;5018535;28;20033;-79
2023/12/01 05:08:10;;;;;;;9.63;7.30;;;;;;;;;;5019110;28;20022;-80
2023/12/01 05:10:37;;;;;;;10.13;7.13;;;;;;;;;;5018906;28;20053;-80
2023/12/01 05:13:04;;;;;;;9.55;6.95;;;;;;;;;;5019718;28;20034;-80
2023/12/01 05:15:31;;;;;;;13.23;7.95;;;;;;;;;;5012632;28;20105;-81
2023/12/01 05:17:58;;;;;;;10.02;7.95;;;;;;;;;;5000542;28;20058;-82
2023/12/01 05:20:27;;;;;;;11.15;7.90;;;;;;;;;;4998091;28;20053;-79
2023/12/01 05:22:54;;;;;;;10.82;7.50;;;;;;;;;;5006653;28;20080;-79
2023/12/01 05:25:21;;;;;;;11.45;8.05;;;;;;;;;;5007600;28;20022;-80
2023/12/01 05:27:49;;;;;;;9.48;7.03;;;;;;;;;;5005078;28;20026;-79
2023/12/01 05:30:15;;;;;;;13.75;8.38;;;;;;;;;;5016460;28;20060;-80
2023/12/01 05:32:51;;;;;;;10.50;7.88;;;;;;;;;;5008907;28;20026;-79
2023/12/01 05:35:18;;;;;;;12.10;7.90;;;;;;;;;;5013612;28;20026;-79
2023/12/01 05:37:48;;;;;;;13.02;7.40;;;;;;;;;;5014403;28;20022;-79
2023/12/01 05:40:22;;;;;;;10.68;7.07;;;;;;;;;;5024202;28;20014;-77
2023/12/01 05:42:49;;;;;;;11.35;8.02;;;;;;;;;;5012382;28;20066;-78
2023/12/01 05:45:16;;;;;;;11.20;7.25;;;;;;;;;;5020572;28;20591;-78
2023/12/01 05:47:42;;;;;;;11.00;7.43;;;;;;;;;;5014700;28;20053;-79
2023/12/01 05:50:15;;;;;;;8.35;6.55;;;;;;;;;;5004033;28;20019;-77
2023/12/01 05:52:41;;;;;;;;;;;;;;;;;;5017876;28;20515;-77
2023/12/01 05:55:14;;;;;;;8.68;6.03;;;;;;;;;;5006416;28;20000;-78
2023/12/01 05:57:40;;;;;;;9.82;6.45;;;;;;;;;;5006424;28;20113;-79
2023/12/01 06:00:12;;;;;;;8.40;5.93;;;;;;;;;;5005175;28;20080;-80
2023/12/01 06:02:39;;;;;;;7.38;5.03;;;;;;;;;;5004366;28;20393;-80
2023/12/01 06:05:05;;;;;;;7.95;5.40;;;;;;;;;;5012462;28;20060;-78
2023/12/01 06:07:31;;;;;;;8.73;5.05;;;;;;;;;;5013979;28;20034;-79
2023/12/01 06:10:01;;;;;;;8.02;5.78;;;;;;;;;;5011582;28;20026;-77
2023/12/01 06:12:28;;;;;;;6.15;4.63;;;;;;;;;;5013291;28;20037;-77
2023/12/01 06:14:54;;;;;;;5.70;4.43;;;;;;;;;;5003774;28;20033;-78
2023/12/01 06:17:20;;;;;;;5.25;3.83;;;;;;;;;;4997228;28;20097;-78
2023/12/01 06:19:46;;;;;;;6.70;4.60;;;;;;;;;;5006821;28;20033;-78
2023/12/01 06:22:12;;;;;;;8.43;5.00;;;;;;;;;;5007849;28;20026;-79
2023/12/01 06:24:38;;;;;;;7.97;5.28;;;;;;;;;;5006107;28;20088;-78
2023/12/01 06:27:04;;;;;;;6.20;4.68;;;;;;;;;;5002059;28;20022;-78
2023/12/01 06:29:31;;;;;;;8.15;4.95;;;;;;;;;;4996011;28;20022;-78
2023/12/01 06:31:57;;;;;;;6.45;4.25;;;;;;;;;;5001155;28;20451;-77
2023/12/01 06:34:23;;;;;;;4.63;3.83;;;;;;;;;;5005730;28;20026;-76
2023/12/01 06:36:49;;;;;;;5.15;4.03;;;;;;;;;;5009818;28;20054;-78
2023/12/01 06:39:15;;;;;;;5.38;4.45;;;;;;;;;;5008417;28;20018;-78
2023/12/01 06:41:41;;;;;;;5.82;3.80;;;;;;;;;;5005004;28;20169;-78
2023/12/01 06:44:09;;;;;;;5.55;3.55;;;;;;;;;;5013833;28;20037;-78
2023/12/01 06:46:35;;;;;;;5.60;3.45;;;;;;;;;;5022711;28;20021;-78
2023/12/01 06:49:01;;;;;;;4.88;3.35;;;;;;;;;;5025322;28;20036;-77
2023/12/01 06:51:27;;;;;;;4.65;3.42;;;;;;;;;;5039902;28;20481;-79
2023/12/01 06:53:56;;;;;;;4.25;3.35;;;;;;;;;;5044026;28;20018;-77
2023/12/01 06:56:22;;;;;;;3.35;2.78;;;;;;;;;;5043275;28;20061;-76
2023/12/01 06:58:48;;;;;;;3.63;2.97;;;;;;;;;;5036389;28;20017;-77
2023/12/01 07:01:18;;;;;;;2.67;2.15;;;;;;;;;;5020374;28;20102;-77
2023/12/01 07:03:45;;;;;;;3.22;2.55;;;;;;;;;;5037362;28;20038;-78
2023/12/01 07:06:11;;;;;;;2.58;2.15;;;;;;;;;;5027194;28;20031;-78
2023/12/01 07:08:38;;;;;;;2.53;2.05;;;;;;;;;;5021673;28;20056;-78
2023/12/01 07:11:04;;;;;;;2.05;1.85;;;;;;;;;;5002393;28;20022;-79
2023/12/01 07:13:30;;;;;;;2.25;1.92;;;;;;;;;;4999570;28;20027;-78
2023/12/01 07:15:57;;;;;;;2.38;2.13;;;;;;;;;;5006047;28;20010;-78
2023/12/01 07:18:24;;;;;;;2.63;2.05;;;;;;;;;;5001776;28;20116;-78
2023/12/01 07:20:50;;;;;;;2.53;2.30;;;;;;;;;;5002993;28;20078;-79
2023/12/01 07:23:17;;;;;;;2.92;2.30;;;;;;;;;;5010132;28;20074;-78
2023/12/01 07:25:47;;;;;;;3.38;2.67;;;;;;;;;;5000206;28;20030;-78
2023/12/01 07:28:14;;;;;;;3.67;2.70;;;;;;;;;;5001820;28;20034;-78
2023/12/01 07:30:41;;;;;;;3.03;2.67;;;;;;;;;;5009236;28;20076;-79
2023/12/01 07:33:08;;;;;;;3.00;2.47;;;;;;;;;;5001189;28;20031;-78
2023/12/01 07:35:34;;;;;;;2.45;2.15;;;;;;;;;;5009361;28;20026;-79
2023/12/01 07:38:01;;;;;;;2.95;2.13;;;;;;;;;;5009142;28;20039;-77
2023/12/01 07:40:27;;;;;;;2.78;2.30;;;;;;;;;;5011348;28;20064;-78
2023/12/01 07:42:55;;;;;;;2.22;1.95;;;;;;;;;;4999349;28;20030;-79
2023/12/01 07:45:21;;;;;;;2.47;2.08;;;;;;;;;;5008829;28;20117;-78
2023/12/01 07:47:48;;;;;;;2.25;1.90;;;;;;;;;;5006195;28;20033;-78
2023/12/01 07:50:15;;;;;;;1.77;1.63;;;;;;;;;;5000898;28;20032;-77
2023/12/01 07:52:42;;;;;;;2.50;1.92;;;;;;;;;;4997644;28;20022;-77
2023/12/01 07:55:09;;;;;;;2.95;2.08;;;;;;;;;;4998379;28;20054;-77
2023/12/01 07:57:35;;;;;;;1.42;1.23;;;;;;;;;;5010593;28;20033;-76
2023/12/01 08:00:02;;;;;;;2.33;2.10;;;;;;;;;;5012635;28;20030;-78
2023/12/01 08:02:28;;;;;;;1.73;1.63;;;;;;;;;;5005122;28;20018;-77
2023/12/01 08:04:54;;;;;;;1.92;1.83;;;;;;;;;;5005828;28;20033;-76
2023/12/01 08:07:20;;;;;;;1.75;1.40;;;;;;;;;;4997877;28;20029;-77
2023/12/01 08:09:46;;;;;;;2.17;1.77;;;;;;;;;;5004485;28;20097;-76
2023/12/01 08:12:12;;;;;;;2.10;1.90;;;;;;;;;;4998144;28;20508;-77
2023/12/01 08:14:38;;;;;;;2.13;1.92;;;;;;;;;;4996592;28;20125;-77
2023/12/01 08:17:04;;;;;;;2.63;1.83;;;;;;;;;;4998908;28;20547;-77
2023/12/01 08:19:32;;;;;;;2.45;1.80;;;;;;;;;;5003950;28;20042;-77
2023/12/01 08:21:58;;;;;;;1.88;1.63;;;;;;;;;;5006560;28;20026;-77
2023/12/01 08:24:25;;;;;;;2.17;1.85;;;;;;;;;;4998287;28;20141;-77
2023/12/01 08:26:52;;;;;;;2.17;1.98;;;;;;;;;;5005858;28;20033;-78
2023/12/01 08:29:18;;;;;;;2.15;1.95;;;;;;;;;;4998090;28;20022;-78
2023/12/01 08:31:45;;;;;;;2.20;2.00;;;;;;;;;;5010895;28;20085;-78
2023/12/01 08:34:11;;;;;;;2.28;2.03;;;;;;;;;;5005042;28;20030;-79
2023/12/01 08:36:38;;;;;;;2.90;2.60;;;;;;;;;;5012518;28;20105;-77
2023/12/01 08:39:04;;;;;;;2.70;2.35;;;;;;;;;;5017294;28;20100;-77
2023/12/01 08:41:31;;;;;;;4.38;2.35;;;;;;;;;;5006009;28;20018;-77
2023/12/01 08:43:57;;;;;;;2.13;1.92;;;;;;;;;;5001913;28;20019;-77
2023/12/01 08:46:23;;;;;;;2.55;2.35;;;;;;;;;;4999374;28;20036;-77
2023/12/01 08:48:49;;;;;;;1.90;1.70;;;;;;;;;;5011072;28;20139;-79
2023/12/01 08:51:16;;;;;;;2.17;1.98;;;;;;;;;;5026093;28;20041;-78
2023/12/01 08:53:42;;;;;;;2.95;1.95;;;;;;;;;;5018968;28;20089;-78
2023/12/01 08:56:09;;;;;;;2.13;1.95;;;;;;;;;;5025609;28;20126;-78
2023/12/01 08:58:35;;;;;;;2.83;2.30;;;;;;;;;;5014769;28;20025;-77
2023/12/01 09:01:02;;;;;;;2.15;1.50;;;;;;;;;;5035496;28;20038;-76
2023/12/01 09:03:29;;;;;;;4.03;1.80;;;;;;;;;;5031922;28;20118;-77
2023/12/01 09:05:55;;;;;;;1.90;1.70;;;;;;;;;;5029604;28;20045;-77
2023/12/01 09:08:21;;;;;;;2.17;1.50;;;;;;;;;;5021615;28;20053;-77
2023/12/01 09:10:47;;;;;;;1.95;1.55;;;;;;;;;;5005036;28;20031;-77
2023/12/01 09:13:13;;;;;;;2.10;1.80;;;;;;;;;;5013259;28;20085;-76
2023/12/01 09:15:39;;;;;;;2.35;1.92;;;;;;;;;;5003045;28;20109;-77
2023/12/01 09:18:05;;;;;;;1.90;1.80;;;;;;;;;;5008926;28;20096;-77
2023/12/01 09:20:31;;;;;;;2.25;1.90;;;;;;;;;;5009842;28;20050;-77
2023/12/01 09:22:57;;;;;;;2.05;1.85;;;;;;;;;;5007603;28;20018;-78
2023/12/01 09:25:23;;;;;;;2.33;1.80;;;;;;;;;;5020995;28;20033;-78
2023/12/01 09:27:49;;;;;;;2.67;2.30;;;;;;;;;;5002970;28;20061;-77
2023/12/01 09:30:16;;;;;;;2.45;2.10;;;;;;;;;;5005525;28;20027;-78
2023/12/01 09:32:45;;;;;;;2.35;2.00;;;;;;;;;;5012660;28;20115;-78
2023/12/01 09:35:11;;;;;;;1.90;1.70;;;;;;;;;;5008125;28;20089;-77
2023/12/01 09:37:37;;;;;;;1.95;1.80;;;;;;;;;;4997391;28;20023;-77
2023/12/01 09:40:03;;;;;;;1.73;1.63;;;;;;;;;;5004071;28;20089;-78
2023/12/01 09:42:33;;;;;;;1.90;1.63;;;;;;;;;;4998072;28;20025;-77
2023/12/01 09:45:01;;;;;;;2.13;1.95;;;;;;;;;;5016207;28;20469;-77
2023/12/01 09:47:31;;;;;;;2.28;2.05;;;;;;;;;;5007300;28;20018;-77
2023/12/01 09:49:57;;;;;;;2.95;1.83;;;;;;;;;;5006831;28;20483;-77
2023/12/01 09:52:23;;;;;;;2.95;1.73;;;;;;;;;;5007339;28;20038;-79
2023/12/01 09:54:49;;;;;;;2.22;1.98;;;;;;;;;;5000794;28;20022;-77
2023/12/01 09:57:16;;;;;;;2.60;2.13;;;;;;;;;;5002294;28;20130;-77
2023/12/01 09:59:44;;;;;;;2.40;2.20;;;;;;;;;;5023821;28;20026;-77
2023/12/01 10:02:10;;;;;;;2.58;2.30;;;;;;;;;;5019667;28;20389;-78
2023/12/01 10:04:37;;;;;;;3.22;2.65;;;;;;;;;;5010628;28;20030;-77
2023/12/01 10:07:03;;;;;;;2.38;2.17;;;;;;;;;;5017221;28;20026;-79
2023/12/01 10:09:33;;;;;;;2.63;2.00;;;;;;;;;;4999778;28;20398;-77
2023/12/01 10:12:10;;;;;;;3.13;2.22;;;;;;;;;;4995433;28;20121;-77
2023/12/01 10:14:36;;;;;;;2.28;1.83;;;;;;;;;;5002119;28;20026;-78
2023/12/01 10:17:03;;;;;;;2.45;2.17;;;;;;;;;;5003518;28;20026;-78
2023/12/01 10:19:36;;;;;;;2.33;1.98;;;;;;;;;;5004832;28;20068;-78
2023/12/01 10:22:02;;;;;;;;;;;;;;;;;;5000844;28;20029;-76
2023/12/01 10:24:28;;;;;;;1.75;1.45;;;;;;;;;;5010656;28;19933;-79
2023/12/01 10:26:55;;;;;;;2.33;1.55;;;;;;;;;;5008392;28;20057;-79
2023/12/01 10:29:28;;;;;;;2.33;1.55;;;;;;;;;;5019475;28;20030;-78
2023/12/01 10:31:54;;;;;;;1.83;1.25;;;;;;;;;;5012700;28;20046;-77
2023/12/01 10:34:20;;;;;;;1.50;1.40;;;;;;;;;;5015528;28;20028;-77
2023/12/01 10:36:47;;;;;;;1.80;1.67;;;;;;;;;;5008866;28;20554;-77
2023/12/01 10:39:16;;;;;;;1.48;1.17;;;;;;;;;;5004877;28;20244;-78
2023/12/01 10:41:44;;;;;;;1.60;1.20;;;;;;;;;;5003624;28;20042;-77
2023/12/01 10:44:15;;;;;;;1.50;1.30;;;;;;;;;;5013471;28;20022;-76
2023/12/01 10:46:41;;;;;;;1.90;1.50;;;;;;;;;;5020234;28;20030;-77
2023/12/01 10:49:08;;;;;;;2.13;1.88;;;;;;;;;;5010108;28;20033;-77
2023/12/01 10:51:34;;;;;;;1.55;1.38;;;;;;;;;;4999446;28;20062;-78
2023/12/01 10:54:01;;;;;;;2.03;1.80;;;;;;;;;;5011405;28;20029;-78
2023/12/01 10:56:30;;;;;;;2.58;2.10;;;;;;;;;;5002339;28;20030;-78
2023/12/01 10:58:58;;;;;;;2.50;1.85;;;;;;;;;;5019190;28;20026;-76
2023/12/01 11:01:27;;;;;;;4.30;2.95;;;;;;;;;;5014883;28;20014;-76
2023/12/01 11:03:56;;;;;;;3.45;2.88;;;;;;;;;;5021960;28;20038;-78
2023/12/01 11:06:31;;;;;;;3.40;2.60;;;;;;;;;;5022752;28;20050;-78
2023/12/01 11:08:57;;;;;;;4.43;3.17;;;;;;;;;;5011656;28;20045;-77
2023/12/01 11:11:31;;;;;;;5.32;2.75;;;;;;;;;;5007475;28;20025;-78
2023/12/01 11:14:09;;;;;;;4.53;2.85;;;;;;;;;;5009853;28;20030;-77
2023/12/01 11:16:35;;;;;;;4.05;3.08;;;;;;;;;;4997164;28;20109;-77
2023/12/01 11:19:01;;;;;;;4.10;3.40;;;;;;;;;;5008676;28;20038;-78
2023/12/01 11:21:28;;;;;;;5.07;3.60;;;;;;;;;;5004795;28;20061;-77
2023/12/01 11:23:54;;;;;;;5.38;3.92;;;;;;;;;;5004456;28;20117;-78
2023/12/01 11:26:26;;;;;;;5.90;3.92;;;;;;;;;;5003528;28;20058;-77
2023/12/01 11:29:04;;;;;;;4.80;3.47;;;;;;;;;;5015714;28;20384;-79
2023/12/01 11:31:39;;;;;;;4.38;3.58;;;;;;;;;;5012343;28;20050;-77
2023/12/01 11:34:08;;;;;;;5.05;3.42;;;;;;;;;;5026132;28;20021;-77
2023/12/01 11:36:37;;;;;;;4.15;3.15;;;;;;;;;;5017800;28;20150;-79
2023/12/01 11:41:41;;;;;;;6.40;3.83;;;;;;;;;;5016699;28;20038;-77
2023/12/01 11:44:11;;;;;;;6.60;3.97;;;;;;;;;;5014362;28;20018;-77
2023/12/01 11:46:40;;;;;;;5.35;3.60;;;;;;;;;;5007904;28;20114;-77
2023/12/01 11:49:07;;;;;;;6.38;3.55;;;;;;;;;;5014685;28;20080;-77
2023/12/01 11:51:33;;;;;;;5.15;3.85;;;;;;;;;;5010762;28;20026;-78
2023/12/01 11:54:00;;;;;;;4.65;3.63;;;;;;;;;;5009626;28;20041;-77
2023/12/01 11:56:26;;;;;;;4.43;3.30;;;;;;;;;;5001710;28;20026;-78
2023/12/01 11:58:53;;;;;;;3.95;3.13;;;;;;;;;;5009286;28;20030;-78
2023/12/01 12:01:22;;;;;;;5.20;3.45;;;;;;;;;;5005952;28;20061;-78
2023/12/01 12:03:55;;;;;;;4.53;3.47;;;;;;;;;;4999600;28;20042;-78
2023/12/01 12:06:22;;;;;;;5.93;4.10;;;;;;;;;;5010402;28;20030;-77
2023/12/01 12:08:48;;;;;;;4.57;3.85;;;;;;;;;;5008443;28;20201;-77
2023/12/01 12:11:15;;;;;;;3.92;3.42;;;;;;;;;;5039023;28;20039;-76
2023/12/01 12:13:41;;;;;;;4.97;4.05;;;;;;;;;;5019524;28;20033;-77
2023/12/01 12:16:07;;;;;;;4.68;3.65;;;;;;;;;;5016343;28;20027;-76
2023/12/01 12:18:34;;;;;;;4.97;3.92;;;;;;;;;;5022747;28;20029;-76
2023/12/01 12:21:04;;;;;;;3.88;3.20;;;;;;;;;;5031603;28;20040;-75
2023/12/01 12:23:31;;;;;;;5.32;3.28;;;;;;;;;;5015252;28;20026;-77
2023/12/01 12:26:13;;;;;;;4.55;3.67;;;;;;;;;;5015893;28;20030;-76
2023/12/01 12:28:39;;;;;;;6.10;3.97;;;;;;;;;;5035056;28;20037;-76
2023/12/01 12:31:05;;;;;;;6.47;4.38;;;;;;;;;;5031378;28;20038;-76
2023/12/01 12:33:31;;;;;;;5.50;4.75;;;;;;;;;;5035744;28;20056;-77
2023/12/01 12:36:01;;;;;;;5.57;4.82;;;;;;;;;;5029084;28;20034;-77
2023/12/01 12:38:27;;;;;;;5.43;4.28;;;;;;;;;;5020654;28;20014;-76
2023/12/01 12:40:53;;;;;;;7.55;5.43;;;;;;;;;;5023637;28;20054;-76
2023/12/01 12:43:20;;;;;;;5.78;4.75;;;;;;;;;;5035544;28;20030;-76
2023/12/01 12:45:49;;;;;;;6.85;5.43;;;;;;;;;;5028139;28;20061;-77
2023/12/01 12:48:15;;;;;;;5.75;4.90;;;;;;;;;;5018621;28;20113;-76
2023/12/01 12:50:47;;;;;;;7.55;5.68;;;;;;;;;;5035619;28;20026;-78
2023/12/01 12:53:13;;;;;;;6.60;5.28;;;;;;;;;;5018512;28;20034;-78
2023/12/01 12:55:39;;;;;;;8.23;5.80;;;;;;;;;;5030264;28;20022;-76
2023/12/01 12:58:05;;;;;;;7.80;5.93;;;;;;;;;;5016511;28;20022;-77
2023/12/01 13:00:31;;;;;;;7.80;6.28;;;;;;;;;;5015563;28;20030;-77
2023/12/01 13:02:57;;;;;;;6.13;5.18;;;;;;;;;;5016298;28;20117;-76
2023/12/01 13:05:26;;;;;;;7.65;6.05;;;;;;;;;;5045391;28;20025;-75
2023/12/01 13:07:52;;;;;;;8.90;6.32;;;;;;;;;;5017966;28;20039;-76
2023/12/01 13:10:18;;;;;;;8.98;5.82;;;;;;;;;;5031624;28;20041;-78
2023/12/01 13:12:45;;;;;;;9.65;6.65;;;;;;;;;;5009228;28;20064;-78
2023/12/01 13:15:11;;;;;;;9.73;6.85;;;;;;;;;;5013305;28;20026;-78
2023/12/01 13:17:37;;;;;;;8.50;6.20;;;;;;;;;;5011726;28;20049;-78
2023/12/01 13:20:05;;;;;;;7.88;6.53;;;;;;;;;;5020310;28;20088;-77
2023/12/01 13:22:31;;;;;;;8.38;6.07;;;;;;;;;;5024488;28;20063;-78
2023/12/01 13:24:57;;;;;;;8.52;5.90;;;;;;;;;;5018633;28;20080;-78
2023/12/01 13:27:23;;;;;;;9.85;6.85;;;;;;;;;;5019833;28;20026;-78
2023/12/01 13:29:49;;;;;;;8.40;6.07;;;;;;;;;;5024663;28;20026;-77
2023/12/01 13:32:15;;;;;;;9.57;6.93;;;;;;;;;;5016377;28;20017;-77
2023/12/01 13:34:41;;;;;;;8.32;6.57;;;;;;;;;;5020978;28;20040;-76
2023/12/01 13:37:07;;;;;;;8.13;6.22;;;;;;;;;;5027488;28;20030;-77
2023/12/01 13:39:33;;;;;;;8.32;6.25;;;;;;;;;;5023310;28;20026;-76
2023/12/01 13:41:59;;;;;;;9.50;7.35;;;;;;;;;;5037848;28;20022;-75
2023/12/01 13:44:26;;;;;;;10.45;7.13;;;;;;;;;;5037612;28;20087;-77
2023/12/01 13:46:53;;;;;;;10.77;7.47;;;;;;;;;;5017009;28;20014;-76
2023/12/01 13:49:19;;;;;;;10.10;7.63;;;;;;;;;;5025850;28;20033;-76
2023/12/01 13:51:46;;;;;;;9.27;6.88;;;;;;;;;;5022555;28;20033;-77
2023/12/01 13:54:12;;;;;;;11.63;7.70;;;;;;;;;;5035123;28;20049;-76
2023/12/01 13:56:38;;;;;;;9.70;7.75;;;;;;;;;;5039600;28;20042;-78
2023/12/01 13:59:04;;;;;;;9.57;7.32;;;;;;;;;;5016608;28;20029;-79
2023/12/01 14:01:31;;;;;;;11.48;7.70;;;;;;;;;;5034894;28;20033;-79
2023/12/01 14:03:57;;;;;;;12.13;8.27;;;;;;;;;;5025510;28;20048;-78
2023/12/01 14:06:23;;;;;;;10.80;7.70;;;;;;;;;;5020165;28;20037;-78
2023/12/01 14:08:49;;;;;;;12.23;8.15;;;;;;;;;;5019517;28;20121;-78
2023/12/01 14:11:15;;;;;;;11.00;7.85;;;;;;;;;;5010308;28;20098;-76
2023/12/01 14:13:41;;;;;;;9.57;6.85;;;;;;;;;;5024122;28;20026;-77
2023/12/01 14:16:07;;;;;;;10.73;8.20;;;;;;;;;;5030859;28;20025;-76
2023/12/01 14:18:33;;;;;;;9.85;7.57;;;;;;;;;;5026380;28;20044;-77
2023/12/01 14:20:59;;;;;;;9.48;7.25;;;;;;;;;;5002760;28;20053;-77
2023/12/01 14:23:25;;;;;;;11.30;8.30;;;;;;;;;;4996245;28;20025;-78
2023/12/01 14:25:51;;;;;;;10.80;7.88;;;;;;;;;;5001986;28;20037;-78
2023/12/01 14:28:17;;;;;;;10.05;7.47;;;;;;;;;;5003274;28;20030;-78
2023/12/01 14:30:44;;;;;;;9.95;7.00;;;;;;;;;;4997932;28;20064;-77
2023/12/01 14:33:10;;;;;;;9.90;6.82;;;;;;;;;;5008570;28;20366;-79
2023/12/01 14:35:36;;;;;;;9.65;6.85;;;;;;;;;;5007882;28;20026;-80
2023/12/01 14:38:02;;;;;;;9.43;6.85;;;;;;;;;;5015470;28;20022;-78
2023/12/01 14:40:28;;;;;;;9.73;6.78;;;;;;;;;;5012633;28;20038;-78
2023/12/01 14:42:55;;;;;;;9.25;7.15;;;;;;;;;;5012967;28;20021;-78
2023/12/01 14:45:23;;;;;;;8.63;6.40;;;;;;;;;;5028694;28;20026;-78